sensor_id;sensor_type;location;lat;lon;timestamp;temperature;humidity
47604;DHT22;33326;51.116;6.900;2022-12-29T00:04:05;10.90;99.90
47604;DHT22;33326;51.116;6.900;2022-12-29T00:09:09;10.90;99.90
47604;DHT22;33326;51.116;6.900;2022-12-29T00:14:12;10.80;99.90
47604;DHT22;33326;51.116;6.900;2022-12-29T00:19:32;10.90;99.90
47604;DHT22;33326;51.116;6.900;2022-12-29T00:24:53;10.90;99.90
47604;DHT22;33326;51.116;6.900;2022-12-29T00:30:13;10.90;99.90
47604;DHT22;33326;51.116;6.900;2022-12-29T00:35:38;10.90;99.90
47604;DHT22;33326;51.116;6.900;2022-12-29T00:40:43;10.90;99.90
47604;DHT22;33326;51.116;6.900;2022-12-29T00:46:01;10.90;99.90
47604;DHT22;33326;51.116;6.900;2022-12-29T00:51:05;10.90;99.90
47604;DHT22;33326;51.116;6.900;2022-12-29T00:56:08;11.00;99.90
47604;DHT22;33326;51.116;6.900;2022-12-29T01:01:10;11.00;99.90
47604;DHT22;33326;51.116;6.900;2022-12-29T01:06:12;11.00;99.90
47604;DHT22;33326;51.116;6.900;2022-12-29T01:11:16;11.00;99.90
47604;DHT22;33326;51.116;6.900;2022-12-29T01:16:17;11.10;99.90
47604;DHT22;33326;51.116;6.900;2022-12-29T01:21:19;11.00;99.90
47604;DHT22;33326;51.116;6.900;2022-12-29T01:26:22;11.10;99.90
47604;DHT22;33326;51.116;6.900;2022-12-29T01:31:26;11.10;99.90
47604;DHT22;33326;51.116;6.900;2022-12-29T01:36:28;11.20;99.90
47604;DHT22;33326;51.116;6.900;2022-12-29T01:41:31;11.30;99.90
47604;DHT22;33326;51.116;6.900;2022-12-29T01:46:38;11.40;99.90
47604;DHT22;33326;51.116;6.900;2022-12-29T01:51:45;11.50;99.90
47604;DHT22;33326;51.116;6.900;2022-12-29T01:56:52;11.50;99.90
47604;DHT22;33326;51.116;6.900;2022-12-29T02:01:55;11.70;99.90
47604;DHT22;33326;51.116;6.900;2022-12-29T02:06:59;11.70;99.90
47604;DHT22;33326;51.116;6.900;2022-12-29T02:12:03;11.80;99.90
47604;DHT22;33326;51.116;6.900;2022-12-29T02:17:10;11.70;99.90
47604;DHT22;33326;51.116;6.900;2022-12-29T02:22:22;11.80;99.90
47604;DHT22;33326;51.116;6.900;2022-12-29T02:27:43;11.80;99.90
47604;DHT22;33326;51.116;6.900;2022-12-29T02:32:56;12.00;99.90
47604;DHT22;33326;51.116;6.900;2022-12-29T02:38:07;12.00;99.90
47604;DHT22;33326;51.116;6.900;2022-12-29T02:43:14;12.10;99.90
47604;DHT22;33326;51.116;6.900;2022-12-29T02:48:25;12.30;99.90
47604;DHT22;33326;51.116;6.900;2022-12-29T02:53:32;12.30;99.90
47604;DHT22;33326;51.116;6.900;2022-12-29T02:58:53;12.40;99.90
47604;DHT22;33326;51.116;6.900;2022-12-29T03:04:15;12.40;99.90
47604;DHT22;33326;51.116;6.900;2022-12-29T03:09:29;12.40;99.90
47604;DHT22;33326;51.116;6.900;2022-12-29T03:14:44;12.40;99.90
47604;DHT22;33326;51.116;6.900;2022-12-29T03:20:10;12.30;99.90
47604;DHT22;33326;51.116;6.900;2022-12-29T03:25:22;12.20;99.90
47604;DHT22;33326;51.116;6.900;2022-12-29T03:30:26;12.10;99.90
47604;DHT22;33326;51.116;6.900;2022-12-29T03:35:34;12.10;99.90
47604;DHT22;33326;51.116;6.900;2022-12-29T03:40:41;12.00;99.90
47604;DHT22;33326;51.116;6.900;2022-12-29T03:45:44;11.90;99.90
47604;DHT22;33326;51.116;6.900;2022-12-29T03:50:47;11.90;99.90
47604;DHT22;33326;51.116;6.900;2022-12-29T03:55:50;11.90;99.90
47604;DHT22;33326;51.116;6.900;2022-12-29T04:00:52;11.90;99.90
47604;DHT22;33326;51.116;6.900;2022-12-29T04:05:55;11.90;99.90
47604;DHT22;33326;51.116;6.900;2022-12-29T04:10:57;11.90;99.90
47604;DHT22;33326;51.116;6.900;2022-12-29T04:15:59;11.90;99.90
47604;DHT22;33326;51.116;6.900;2022-12-29T04:21:03;11.80;99.90
47604;DHT22;33326;51.116;6.900;2022-12-29T04:26:08;11.80;99.90
47604;DHT22;33326;51.116;6.900;2022-12-29T04:31:22;11.80;99.90
47604;DHT22;33326;51.116;6.900;2022-12-29T04:36:26;11.80;99.90
47604;DHT22;33326;51.116;6.900;2022-12-29T04:41:28;11.80;99.90
47604;DHT22;33326;51.116;6.900;2022-12-29T04:46:30;11.90;99.90
47604;DHT22;33326;51.116;6.900;2022-12-29T04:51:36;11.90;99.90
47604;DHT22;33326;51.116;6.900;2022-12-29T04:56:40;12.10;99.90
47604;DHT22;33326;51.116;6.900;2022-12-29T05:01:42;12.40;99.90
47604;DHT22;33326;51.116;6.900;2022-12-29T05:06:45;12.70;99.90
47604;DHT22;33326;51.116;6.900;2022-12-29T05:11:47;12.70;99.90
47604;DHT22;33326;51.116;6.900;2022-12-29T05:16:49;12.60;99.90
47604;DHT22;33326;51.116;6.900;2022-12-29T05:21:53;12.80;99.90
47604;DHT22;33326;51.116;6.900;2022-12-29T05:26:55;12.80;99.90
47604;DHT22;33326;51.116;6.900;2022-12-29T05:32:21;12.80;99.90
47604;DHT22;33326;51.116;6.900;2022-12-29T05:37:25;12.80;99.90
47604;DHT22;33326;51.116;6.900;2022-12-29T05:42:26;12.90;99.90
47604;DHT22;33326;51.116;6.900;2022-12-29T05:47:47;12.90;99.90
47604;DHT22;33326;51.116;6.900;2022-12-29T05:53:11;12.80;99.90
47604;DHT22;33326;51.116;6.900;2022-12-29T05:58:14;12.80;99.90
47604;DHT22;33326;51.116;6.900;2022-12-29T06:03:16;12.70;99.90
47604;DHT22;33326;51.116;6.900;2022-12-29T06:08:19;12.70;99.90
47604;DHT22;33326;51.116;6.900;2022-12-29T06:13:22;12.70;99.90
47604;DHT22;33326;51.116;6.900;2022-12-29T06:18:24;12.70;99.90
47604;DHT22;33326;51.116;6.900;2022-12-29T06:23:27;12.70;99.90
47604;DHT22;33326;51.116;6.900;2022-12-29T06:28:29;12.60;99.90
47604;DHT22;33326;51.116;6.900;2022-12-29T06:33:32;12.60;99.90
47604;DHT22;33326;51.116;6.900;2022-12-29T06:38:35;12.60;99.90
47604;DHT22;33326;51.116;6.900;2022-12-29T06:43:37;12.50;99.90
47604;DHT22;33326;51.116;6.900;2022-12-29T06:48:57;12.50;99.90
47604;DHT22;33326;51.116;6.900;2022-12-29T06:54:01;12.50;99.90
47604;DHT22;33326;51.116;6.900;2022-12-29T06:59:02;12.50;99.90
47604;DHT22;33326;51.116;6.900;2022-12-29T07:04:05;12.50;99.90
47604;DHT22;33326;51.116;6.900;2022-12-29T07:09:09;12.50;99.90
47604;DHT22;33326;51.116;6.900;2022-12-29T07:14:11;12.40;99.90
47604;DHT22;33326;51.116;6.900;2022-12-29T07:19:13;12.40;99.90
47604;DHT22;33326;51.116;6.900;2022-12-29T07:24:16;12.30;99.90
47604;DHT22;33326;51.116;6.900;2022-12-29T07:29:18;12.40;99.90
47604;DHT22;33326;51.116;6.900;2022-12-29T07:34:20;12.30;99.90
47604;DHT22;33326;51.116;6.900;2022-12-29T07:39:23;12.40;99.90
47604;DHT22;33326;51.116;6.900;2022-12-29T07:44:25;12.30;99.90
47604;DHT22;33326;51.116;6.900;2022-12-29T07:49:35;12.20;99.90
47604;DHT22;33326;51.116;6.900;2022-12-29T07:54:38;12.20;99.90
47604;DHT22;33326;51.116;6.900;2022-12-29T07:59:40;12.20;99.90
47604;DHT22;33326;51.116;6.900;2022-12-29T08:04:42;12.20;99.90
47604;DHT22;33326;51.116;6.900;2022-12-29T08:09:45;12.20;99.90
47604;DHT22;33326;51.116;6.900;2022-12-29T08:14:47;12.00;99.90
47604;DHT22;33326;51.116;6.900;2022-12-29T08:19:49;12.10;99.90
47604;DHT22;33326;51.116;6.900;2022-12-29T08:24:52;12.10;99.90
47604;DHT22;33326;51.116;6.900;2022-12-29T08:29:54;12.20;99.90
47604;DHT22;33326;51.116;6.900;2022-12-29T08:34:56;12.20;99.90
47604;DHT22;33326;51.116;6.900;2022-12-29T08:39:59;12.20;99.90
47604;DHT22;33326;51.116;6.900;2022-12-29T08:45:04;12.10;99.90
47604;DHT22;33326;51.116;6.900;2022-12-29T08:50:07;12.10;99.90
47604;DHT22;33326;51.116;6.900;2022-12-29T08:55:10;12.20;99.90
47604;DHT22;33326;51.116;6.900;2022-12-29T09:00:13;12.20;99.90
47604;DHT22;33326;51.116;6.900;2022-12-29T09:05:16;12.20;99.90
47604;DHT22;33326;51.116;6.900;2022-12-29T09:10:19;12.10;99.90
47604;DHT22;33326;51.116;6.900;2022-12-29T09:15:21;12.00;99.90
47604;DHT22;33326;51.116;6.900;2022-12-29T09:20:23;12.00;99.90
47604;DHT22;33326;51.116;6.900;2022-12-29T09:25:26;12.00;99.90
47604;DHT22;33326;51.116;6.900;2022-12-29T09:30:28;12.00;99.90
47604;DHT22;33326;51.116;6.900;2022-12-29T09:35:30;12.00;99.90
47604;DHT22;33326;51.116;6.900;2022-12-29T09:40:33;12.20;99.90
47604;DHT22;33326;51.116;6.900;2022-12-29T09:45:40;12.20;99.90
47604;DHT22;33326;51.116;6.900;2022-12-29T09:50:46;12.20;99.90
47604;DHT22;33326;51.116;6.900;2022-12-29T09:55:53;12.30;99.90
47604;DHT22;33326;51.116;6.900;2022-12-29T10:01:00;12.30;99.90
47604;DHT22;33326;51.116;6.900;2022-12-29T10:06:09;12.30;99.90
47604;DHT22;33326;51.116;6.900;2022-12-29T10:11:24;12.30;99.90
47604;DHT22;33326;51.116;6.900;2022-12-29T10:16:35;12.30;99.90
47604;DHT22;33326;51.116;6.900;2022-12-29T10:21:47;12.20;99.90
47604;DHT22;33326;51.116;6.900;2022-12-29T10:26:56;12.20;99.90
47604;DHT22;33326;51.116;6.900;2022-12-29T10:32:02;12.20;99.90
47604;DHT22;33326;51.116;6.900;2022-12-29T10:37:14;12.20;99.90
47604;DHT22;33326;51.116;6.900;2022-12-29T10:42:27;12.30;99.90
47604;DHT22;33326;51.116;6.900;2022-12-29T10:47:33;12.40;99.90
47604;DHT22;33326;51.116;6.900;2022-12-29T10:52:38;12.50;99.90
47604;DHT22;33326;51.116;6.900;2022-12-29T10:57:44;12.50;99.90
47604;DHT22;33326;51.116;6.900;2022-12-29T11:08:17;12.70;99.90
47604;DHT22;33326;51.116;6.900;2022-12-29T11:13:26;12.90;99.90
47604;DHT22;33326;51.116;6.900;2022-12-29T11:18:32;12.90;99.90
47604;DHT22;33326;51.116;6.900;2022-12-29T11:23:38;13.00;99.90
47604;DHT22;33326;51.116;6.900;2022-12-29T11:28:44;12.90;99.90
47604;DHT22;33326;51.116;6.900;2022-12-29T11:33:46;13.00;99.90
47604;DHT22;33326;51.116;6.900;2022-12-29T11:38:49;13.00;99.90
47604;DHT22;33326;51.116;6.900;2022-12-29T11:43:55;13.00;99.90
47604;DHT22;33326;51.116;6.900;2022-12-29T11:48:58;12.90;99.90
47604;DHT22;33326;51.116;6.900;2022-12-29T11:54:02;12.70;99.90
47604;DHT22;33326;51.116;6.900;2022-12-29T11:59:43;12.70;99.90
47604;DHT22;33326;51.116;6.900;2022-12-29T12:04:54;12.60;99.90
47604;DHT22;33326;51.116;6.900;2022-12-29T12:09:59;12.50;99.90
47604;DHT22;33326;51.116;6.900;2022-12-29T12:15:04;12.50;99.90
47604;DHT22;33326;51.116;6.900;2022-12-29T12:20:28;12.40;99.90
47604;DHT22;33326;51.116;6.900;2022-12-29T12:25:37;12.30;99.90
47604;DHT22;33326;51.116;6.900;2022-12-29T12:30:45;12.30;99.90
47604;DHT22;33326;51.116;6.900;2022-12-29T12:35:53;12.30;99.90
47604;DHT22;33326;51.116;6.900;2022-12-29T12:41:04;12.30;99.90
47604;DHT22;33326;51.116;6.900;2022-12-29T12:46:42;12.30;99.90
47604;DHT22;33326;51.116;6.900;2022-12-29T12:51:53;12.30;99.90
47604;DHT22;33326;51.116;6.900;2022-12-29T12:57:05;12.30;99.90
47604;DHT22;33326;51.116;6.900;2022-12-29T13:02:24;12.30;99.90
47604;DHT22;33326;51.116;6.900;2022-12-29T13:07:36;12.30;99.90
47604;DHT22;33326;51.116;6.900;2022-12-29T13:12:48;12.20;99.90
47604;DHT22;33326;51.116;6.900;2022-12-29T13:17:59;12.30;99.90
47604;DHT22;33326;51.116;6.900;2022-12-29T13:23:11;12.30;99.90
47604;DHT22;33326;51.116;6.900;2022-12-29T13:28:22;12.40;99.90
47604;DHT22;33326;51.116;6.900;2022-12-29T13:33:35;12.40;99.90
47604;DHT22;33326;51.116;6.900;2022-12-29T13:38:44;12.50;99.90
47604;DHT22;33326;51.116;6.900;2022-12-29T13:43:49;12.50;99.90
47604;DHT22;33326;51.116;6.900;2022-12-29T13:48:55;12.40;99.90
47604;DHT22;33326;51.116;6.900;2022-12-29T13:54:11;12.40;99.90
47604;DHT22;33326;51.116;6.900;2022-12-29T13:59:19;12.30;99.90
47604;DHT22;33326;51.116;6.900;2022-12-29T14:04:26;12.10;99.90
47604;DHT22;33326;51.116;6.900;2022-12-29T14:09:45;12.00;99.90
47604;DHT22;33326;51.116;6.900;2022-12-29T14:14:48;12.00;99.90
47604;DHT22;33326;51.116;6.900;2022-12-29T14:19:53;12.00;99.90
47604;DHT22;33326;51.116;6.900;2022-12-29T14:24:55;12.00;99.90
47604;DHT22;33326;51.116;6.900;2022-12-29T14:29:57;11.90;99.90
47604;DHT22;33326;51.116;6.900;2022-12-29T14:35:41;11.80;99.90
47604;DHT22;33326;51.116;6.900;2022-12-29T14:40:43;11.80;99.90
47604;DHT22;33326;51.116;6.900;2022-12-29T14:45:52;11.70;99.90
47604;DHT22;33326;51.116;6.900;2022-12-29T14:50:57;11.70;99.90
47604;DHT22;33326;51.116;6.900;2022-12-29T14:55:59;11.70;99.90
47604;DHT22;33326;51.116;6.900;2022-12-29T15:01:01;11.70;99.90
47604;DHT22;33326;51.116;6.900;2022-12-29T15:06:07;11.70;99.90
47604;DHT22;33326;51.116;6.900;2022-12-29T15:11:14;11.70;99.90
47604;DHT22;33326;51.116;6.900;2022-12-29T15:16:29;11.60;99.90
47604;DHT22;33326;51.116;6.900;2022-12-29T15:21:34;11.60;99.90
47604;DHT22;33326;51.116;6.900;2022-12-29T15:26:38;11.50;99.90
47604;DHT22;33326;51.116;6.900;2022-12-29T15:31:46;11.50;99.90
47604;DHT22;33326;51.116;6.900;2022-12-29T15:36:51;11.50;99.90
47604;DHT22;33326;51.116;6.900;2022-12-29T15:41:55;11.50;99.90
47604;DHT22;33326;51.116;6.900;2022-12-29T15:47:05;11.40;99.90
47604;DHT22;33326;51.116;6.900;2022-12-29T15:52:17;11.40;99.90
47604;DHT22;33326;51.116;6.900;2022-12-29T15:57:23;11.40;99.90
47604;DHT22;33326;51.116;6.900;2022-12-29T16:02:26;11.40;99.90
47604;DHT22;33326;51.116;6.900;2022-12-29T16:07:31;11.40;99.90
47604;DHT22;33326;51.116;6.900;2022-12-29T16:12:35;11.30;99.90
47604;DHT22;33326;51.116;6.900;2022-12-29T16:17:46;11.30;99.90
47604;DHT22;33326;51.116;6.900;2022-12-29T16:22:52;11.20;99.90
47604;DHT22;33326;51.116;6.900;2022-12-29T16:27:55;11.10;99.90
47604;DHT22;33326;51.116;6.900;2022-12-29T16:32:58;11.00;99.90
47604;DHT22;33326;51.116;6.900;2022-12-29T16:38:13;10.90;99.90
47604;DHT22;33326;51.116;6.900;2022-12-29T16:43:21;10.90;99.90
47604;DHT22;33326;51.116;6.900;2022-12-29T16:48:25;10.90;99.90
47604;DHT22;33326;51.116;6.900;2022-12-29T16:53:32;10.90;99.90
47604;DHT22;33326;51.116;6.900;2022-12-29T16:58:35;10.90;99.90
47604;DHT22;33326;51.116;6.900;2022-12-29T17:03:39;10.90;99.90
47604;DHT22;33326;51.116;6.900;2022-12-29T17:08:44;10.80;99.90
47604;DHT22;33326;51.116;6.900;2022-12-29T17:13:46;10.70;99.90
47604;DHT22;33326;51.116;6.900;2022-12-29T17:18:48;10.80;99.90
47604;DHT22;33326;51.116;6.900;2022-12-29T17:23:51;10.70;99.90
47604;DHT22;33326;51.116;6.900;2022-12-29T17:28:53;10.70;99.90
47604;DHT22;33326;51.116;6.900;2022-12-29T17:33:54;10.70;99.90
47604;DHT22;33326;51.116;6.900;2022-12-29T17:38:58;10.70;99.90
47604;DHT22;33326;51.116;6.900;2022-12-29T17:44:00;10.70;99.90
47604;DHT22;33326;51.116;6.900;2022-12-29T17:49:05;10.60;99.90
47604;DHT22;33326;51.116;6.900;2022-12-29T17:54:19;10.50;99.90
47604;DHT22;33326;51.116;6.900;2022-12-29T17:59:22;10.60;99.90
47604;DHT22;33326;51.116;6.900;2022-12-29T18:04:23;10.50;99.90
47604;DHT22;33326;51.116;6.900;2022-12-29T18:09:27;10.60;99.90
47604;DHT22;33326;51.116;6.900;2022-12-29T18:14:28;10.30;99.90
47604;DHT22;33326;51.116;6.900;2022-12-29T18:19:30;10.20;99.90
47604;DHT22;33326;51.116;6.900;2022-12-29T18:24:33;10.10;99.90
47604;DHT22;33326;51.116;6.900;2022-12-29T18:29:36;10.00;99.90
47604;DHT22;33326;51.116;6.900;2022-12-29T18:34:37;9.90;99.90
47604;DHT22;33326;51.116;6.900;2022-12-29T18:39:41;9.80;99.90
47604;DHT22;33326;51.116;6.900;2022-12-29T18:44:42;9.70;99.90
47604;DHT22;33326;51.116;6.900;2022-12-29T18:49:44;9.70;99.90
47604;DHT22;33326;51.116;6.900;2022-12-29T18:54:47;9.70;99.90
47604;DHT22;33326;51.116;6.900;2022-12-29T18:59:49;9.70;99.90
47604;DHT22;33326;51.116;6.900;2022-12-29T19:04:51;9.60;99.90
47604;DHT22;33326;51.116;6.900;2022-12-29T19:09:54;9.60;99.90
47604;DHT22;33326;51.116;6.900;2022-12-29T19:14:56;9.60;99.90
47604;DHT22;33326;51.116;6.900;2022-12-29T19:20:00;9.60;99.90
47604;DHT22;33326;51.116;6.900;2022-12-29T19:25:04;9.60;99.90
47604;DHT22;33326;51.116;6.900;2022-12-29T19:30:08;9.50;99.90
47604;DHT22;33326;51.116;6.900;2022-12-29T19:35:10;9.50;99.90
47604;DHT22;33326;51.116;6.900;2022-12-29T19:40:15;9.40;99.90
47604;DHT22;33326;51.116;6.900;2022-12-29T19:45:18;9.30;99.90
47604;DHT22;33326;51.116;6.900;2022-12-29T19:50:20;9.20;99.90
47604;DHT22;33326;51.116;6.900;2022-12-29T19:55:23;9.20;99.90
47604;DHT22;33326;51.116;6.900;2022-12-29T20:00:25;9.10;99.90
47604;DHT22;33326;51.116;6.900;2022-12-29T20:05:27;9.10;99.90
47604;DHT22;33326;51.116;6.900;2022-12-29T20:10:30;9.10;99.90
47604;DHT22;33326;51.116;6.900;2022-12-29T20:15:32;9.10;99.90
47604;DHT22;33326;51.116;6.900;2022-12-29T20:20:34;9.10;99.90
47604;DHT22;33326;51.116;6.900;2022-12-29T20:25:37;9.00;99.90
47604;DHT22;33326;51.116;6.900;2022-12-29T20:30:39;9.00;99.90
47604;DHT22;33326;51.116;6.900;2022-12-29T20:35:41;8.90;99.90
47604;DHT22;33326;51.116;6.900;2022-12-29T20:40:44;8.90;99.90
47604;DHT22;33326;51.116;6.900;2022-12-29T20:45:47;8.90;99.90
47604;DHT22;33326;51.116;6.900;2022-12-29T20:50:49;8.90;99.90
47604;DHT22;33326;51.116;6.900;2022-12-29T20:55:53;9.00;99.90
47604;DHT22;33326;51.116;6.900;2022-12-29T21:00:59;8.90;99.90
47604;DHT22;33326;51.116;6.900;2022-12-29T21:06:01;9.00;99.90
47604;DHT22;33326;51.116;6.900;2022-12-29T21:11:04;9.00;99.90
47604;DHT22;33326;51.116;6.900;2022-12-29T21:16:08;9.00;99.90
47604;DHT22;33326;51.116;6.900;2022-12-29T21:21:14;9.00;99.90
47604;DHT22;33326;51.116;6.900;2022-12-29T21:26:19;9.00;99.90
47604;DHT22;33326;51.116;6.900;2022-12-29T21:31:25;9.00;99.90
47604;DHT22;33326;51.116;6.900;2022-12-29T21:36:27;9.00;99.90
47604;DHT22;33326;51.116;6.900;2022-12-29T21:41:31;9.00;99.90
47604;DHT22;33326;51.116;6.900;2022-12-29T21:46:36;9.00;99.90
47604;DHT22;33326;51.116;6.900;2022-12-29T21:51:38;9.00;99.90
47604;DHT22;33326;51.116;6.900;2022-12-29T21:56:54;8.90;99.90
47604;DHT22;33326;51.116;6.900;2022-12-29T22:01:56;8.90;99.90
47604;DHT22;33326;51.116;6.900;2022-12-29T22:07:15;8.90;99.90
47604;DHT22;33326;51.116;6.900;2022-12-29T22:12:36;8.90;99.90
47604;DHT22;33326;51.116;6.900;2022-12-29T22:17:56;8.90;99.90
47604;DHT22;33326;51.116;6.900;2022-12-29T22:22:58;8.90;99.90
47604;DHT22;33326;51.116;6.900;2022-12-29T22:28:01;8.80;99.90
47604;DHT22;33326;51.116;6.900;2022-12-29T22:33:03;8.80;99.90
47604;DHT22;33326;51.116;6.900;2022-12-29T22:38:05;8.80;99.90
47604;DHT22;33326;51.116;6.900;2022-12-29T22:43:08;8.80;99.90
47604;DHT22;33326;51.116;6.900;2022-12-29T22:48:10;8.70;99.90
47604;DHT22;33326;51.116;6.900;2022-12-29T22:53:12;8.70;99.90
47604;DHT22;33326;51.116;6.900;2022-12-29T22:58:15;8.50;99.90
47604;DHT22;33326;51.116;6.900;2022-12-29T23:03:18;8.50;99.90
47604;DHT22;33326;51.116;6.900;2022-12-29T23:08:20;8.50;99.90
47604;DHT22;33326;51.116;6.900;2022-12-29T23:13:23;8.50;99.90
47604;DHT22;33326;51.116;6.900;2022-12-29T23:18:25;8.40;99.90
47604;DHT22;33326;51.116;6.900;2022-12-29T23:23:27;8.40;99.90
47604;DHT22;33326;51.116;6.900;2022-12-29T23:28:48;8.40;99.90
47604;DHT22;33326;51.116;6.900;2022-12-29T23:33:50;8.50;99.90
47604;DHT22;33326;51.116;6.900;2022-12-29T23:38:52;8.40;99.90
47604;DHT22;33326;51.116;6.900;2022-12-29T23:43:55;8.40;99.90
47604;DHT22;33326;51.116;6.900;2022-12-29T23:48:57;8.40;99.90
47604;DHT22;33326;51.116;6.900;2022-12-29T23:53:59;8.30;99.90
47604;DHT22;33326;51.116;6.900;2022-12-29T23:59:03;8.30;99.90
